createdAt,value
2019-01-30T00:03:46.030Z,19.37
2019-01-30T00:09:08.293Z,17.20
2019-01-30T00:14:28.507Z,17.70
2019-01-30T00:19:49.032Z,20.63
2019-01-30T00:25:10.075Z,20.27
2019-01-30T00:30:31.039Z,22.20
2019-01-30T00:35:53.575Z,18.63
2019-01-30T00:41:14.519Z,17.80
2019-01-30T00:46:35.215Z,18.27
2019-01-30T00:51:56.243Z,19.13
2019-01-30T00:57:16.452Z,17.20
2019-01-30T01:02:37.796Z,19.03
2019-01-30T01:07:58.295Z,19.97
2019-01-30T01:13:19.216Z,19.20
2019-01-30T01:18:39.787Z,17.07
2019-01-30T01:24:00.465Z,15.93
2019-01-30T01:29:20.927Z,15.70
2019-01-30T01:34:41.584Z,17.10
2019-01-30T01:40:02.987Z,18.70
2019-01-30T01:45:23.854Z,17.20
2019-01-30T01:50:44.644Z,16.50
2019-01-30T01:56:05.455Z,17.00
2019-01-30T02:01:26.284Z,17.13
2019-01-30T02:06:46.734Z,16.10
2019-01-30T02:12:07.431Z,17.60
2019-01-30T02:17:27.670Z,16.07
2019-01-30T02:22:48.270Z,15.30
2019-01-30T02:28:09.022Z,11.53
2019-01-30T02:33:29.829Z,14.73
2019-01-30T02:38:50.286Z,14.03
2019-01-30T02:44:11.109Z,12.33
2019-01-30T02:49:31.667Z,11.17
2019-01-30T02:54:52.438Z,12.23
2019-01-30T03:00:18.881Z,13.03
2019-01-30T03:05:39.447Z,12.03
2019-01-30T03:11:00.253Z,13.67
2019-01-30T03:16:20.666Z,11.50
2019-01-30T03:21:40.951Z,15.07
2019-01-30T03:27:01.681Z,13.07
2019-01-30T03:32:23.579Z,15.77
2019-01-30T03:37:44.605Z,13.47
2019-01-30T03:43:05.220Z,15.37
2019-01-30T03:48:26.143Z,13.73
2019-01-30T03:53:46.552Z,13.60
2019-01-30T03:59:08.671Z,12.73
2019-01-30T04:04:29.631Z,15.63
2019-01-30T04:09:50.336Z,18.90
2019-01-30T04:15:11.147Z,14.33
2019-01-30T04:20:31.465Z,16.47
2019-01-30T04:25:52.050Z,15.20
2019-01-30T04:31:12.695Z,17.43
2019-01-30T04:36:33.321Z,13.83
2019-01-30T04:41:54.057Z,15.47
2019-01-30T04:47:14.798Z,15.87
2019-01-30T04:52:35.466Z,16.40
2019-01-30T04:57:58.218Z,15.97
2019-01-30T05:03:18.955Z,16.87
2019-01-30T05:08:39.520Z,18.27
2019-01-30T05:14:01.511Z,18.33
2019-01-30T05:19:22.178Z,22.73
2019-01-30T05:24:43.168Z,18.63
2019-01-30T05:30:08.555Z,20.53
2019-01-30T05:35:29.665Z,19.20
2019-01-30T05:40:53.688Z,19.97
2019-01-30T05:46:14.226Z,20.23
2019-01-30T05:51:34.706Z,19.43
2019-01-30T05:56:56.572Z,16.53
2019-01-30T06:02:17.203Z,21.23
2019-01-30T06:07:38.107Z,18.10
2019-01-30T06:12:58.649Z,20.10
2019-01-30T06:18:19.361Z,17.50
2019-01-30T06:23:40.030Z,19.50
2019-01-30T06:29:00.498Z,22.53
2019-01-30T06:34:21.293Z,22.43
2019-01-30T06:39:42.003Z,21.37
2019-01-30T06:45:03.691Z,21.27
2019-01-30T06:50:24.317Z,21.87
2019-01-30T06:55:44.830Z,22.63
2019-01-30T07:01:06.849Z,27.33
2019-01-30T07:06:27.149Z,22.57
2019-01-30T07:11:47.812Z,22.03
2019-01-30T07:17:09.449Z,23.77
2019-01-30T07:22:30.374Z,22.67
2019-01-30T07:27:51.006Z,20.50
2019-01-30T07:33:11.640Z,20.53
2019-01-30T07:38:32.434Z,19.60
2019-01-30T07:43:52.912Z,21.73
2019-01-30T07:49:13.362Z,24.00
2019-01-30T07:54:33.874Z,20.67
2019-01-30T07:59:54.190Z,21.13
2019-01-30T08:05:16.165Z,17.93
2019-01-30T08:10:36.965Z,17.40
2019-01-30T08:15:57.540Z,22.57
2019-01-30T08:21:18.082Z,16.93
2019-01-30T08:26:39.039Z,16.60
2019-01-30T08:31:59.943Z,14.17
2019-01-30T08:37:20.285Z,16.80
2019-01-30T08:42:22.189Z,15.37
2019-01-30T08:47:24.520Z,15.23
2019-01-30T08:52:26.456Z,17.87
2019-01-30T08:57:28.561Z,14.30
2019-01-30T09:02:30.482Z,16.77
2019-01-30T09:07:43.644Z,15.63
2019-01-30T09:12:36.796Z,14.43
2019-01-30T09:17:38.926Z,16.97
2019-01-30T09:22:41.197Z,13.70
2019-01-30T09:27:43.197Z,13.43
2019-01-30T09:32:45.420Z,14.00
2019-01-30T09:37:47.901Z,12.97
2019-01-30T09:42:49.806Z,14.90
2019-01-30T09:47:53.099Z,15.10
2019-01-30T09:52:55.563Z,12.63
2019-01-30T09:57:58.696Z,12.53
2019-01-30T10:03:00.855Z,13.17
2019-01-30T10:08:04.988Z,12.73
2019-01-30T10:13:08.008Z,16.97
2019-01-30T10:18:12.953Z,15.77
2019-01-30T10:23:15.217Z,11.43
2019-01-30T10:28:17.368Z,13.50
2019-01-30T10:33:20.118Z,10.67
2019-01-30T10:38:22.225Z,11.37
2019-01-30T10:43:43.000Z,13.90
2019-01-30T10:49:03.737Z,13.60
2019-01-30T10:54:24.120Z,13.80
2019-01-30T10:59:44.684Z,11.57
2019-01-30T11:05:05.814Z,14.97
2019-01-30T11:10:26.428Z,11.53
2019-01-30T11:15:46.973Z,14.03
2019-01-30T11:21:07.743Z,11.93
2019-01-30T11:26:30.013Z,12.23
2019-01-30T11:31:50.553Z,12.90
2019-01-30T11:37:11.228Z,11.33
2019-01-30T11:42:32.090Z,11.33
2019-01-30T11:47:52.653Z,11.80
2019-01-30T11:53:13.185Z,12.60
2019-01-30T11:58:34.065Z,11.60
2019-01-30T12:03:54.425Z,11.67
2019-01-30T12:09:15.273Z,11.87
2019-01-30T12:14:36.096Z,13.37
2019-01-30T12:19:56.721Z,13.67
2019-01-30T12:25:17.621Z,11.40
2019-01-30T12:30:38.025Z,11.77
2019-01-30T12:35:58.476Z,12.03
2019-01-30T12:41:18.892Z,9.37
2019-01-30T12:46:39.652Z,10.27
2019-01-30T12:51:59.895Z,10.13
2019-01-30T12:57:20.466Z,11.60
2019-01-30T13:02:41.028Z,12.00
2019-01-30T13:08:01.720Z,14.13
2019-01-30T13:13:22.089Z,10.73
2019-01-30T13:18:42.779Z,16.10
2019-01-30T13:24:03.551Z,13.33
2019-01-30T13:29:24.050Z,12.60
2019-01-30T13:34:48.938Z,11.93
2019-01-30T13:40:11.720Z,11.63
2019-01-30T13:45:32.910Z,13.07
2019-01-30T13:50:54.453Z,12.73
2019-01-30T13:56:15.003Z,14.43
2019-01-30T14:01:36.832Z,11.17
2019-01-30T14:06:57.319Z,13.20
2019-01-30T14:12:17.810Z,11.13
2019-01-30T14:17:38.616Z,11.77
2019-01-30T14:22:59.675Z,12.40
2019-01-30T14:28:20.132Z,13.93
2019-01-30T14:33:40.685Z,12.63
2019-01-30T14:39:01.307Z,14.60
2019-01-30T14:44:21.686Z,12.40
2019-01-30T14:49:42.339Z,16.33
2019-01-30T14:55:03.881Z,10.60
2019-01-30T15:00:26.606Z,13.17
2019-01-30T15:05:47.444Z,10.93
2019-01-30T15:11:09.522Z,12.73
2019-01-30T15:16:30.383Z,12.73
2019-01-30T15:21:50.944Z,15.43
2019-01-30T15:27:11.946Z,14.37
2019-01-30T15:32:32.360Z,16.50
2019-01-30T15:37:53.112Z,12.57
2019-01-30T15:43:13.780Z,12.47
2019-01-30T15:48:34.494Z,13.17
2019-01-30T15:53:55.314Z,15.17
2019-01-30T15:59:15.764Z,14.90
2019-01-30T16:04:36.857Z,16.37
2019-01-30T16:09:57.279Z,16.77
2019-01-30T16:15:22.212Z,13.40
2019-01-30T16:20:42.718Z,16.23
2019-01-30T16:26:03.235Z,15.00
2019-01-30T16:31:23.892Z,16.17
2019-01-30T16:36:44.394Z,17.13
2019-01-30T16:42:05.006Z,17.23
2019-01-30T16:47:25.631Z,14.93
2019-01-30T16:52:46.351Z,17.63
2019-01-30T16:58:08.970Z,17.60
2019-01-30T17:03:29.695Z,16.30
2019-01-30T17:08:50.618Z,17.73
2019-01-30T17:14:12.558Z,15.40
2019-01-30T17:19:33.269Z,21.20
2019-01-30T17:24:53.885Z,20.13
2019-01-30T17:30:24.120Z,24.00
2019-01-30T17:35:47.046Z,18.60
2019-01-30T17:41:07.692Z,18.60
2019-01-30T17:46:28.290Z,18.07
2019-01-30T17:51:48.891Z,17.67
2019-01-30T17:57:10.560Z,17.60
2019-01-30T18:02:32.666Z,17.93
2019-01-30T18:07:53.839Z,16.73
2019-01-30T18:13:14.455Z,18.77
2019-01-30T18:18:35.091Z,18.80
2019-01-30T18:23:55.646Z,18.90
2019-01-30T18:29:16.329Z,21.37
2019-01-30T18:34:37.105Z,20.57
2019-01-30T18:39:57.690Z,17.43
2019-01-30T18:45:20.403Z,19.30
2019-01-30T18:50:41.777Z,33.83
2019-01-30T18:56:02.884Z,24.30
2019-01-30T19:01:23.617Z,20.03
2019-01-30T19:06:51.961Z,21.00
2019-01-30T19:12:08.736Z,17.13
2019-01-30T19:17:29.352Z,15.60
2019-01-30T19:22:49.931Z,13.37
2019-01-30T19:28:11.312Z,15.30
2019-01-30T19:33:32.213Z,21.23
2019-01-30T19:38:54.611Z,13.77
2019-01-30T19:44:15.597Z,13.10
2019-01-30T19:49:36.766Z,11.53
2019-01-30T19:54:57.770Z,15.90
2019-01-30T20:00:21.451Z,12.77
2019-01-30T20:05:42.438Z,15.30
2019-01-30T20:11:03.979Z,15.60
2019-01-30T20:16:25.883Z,16.87
2019-01-30T20:21:47.084Z,12.93
2019-01-30T20:27:08.378Z,14.27
2019-01-30T20:32:29.372Z,15.80
2019-01-30T20:37:50.777Z,12.70
2019-01-30T20:43:12.493Z,12.53
2019-01-30T20:48:45.232Z,12.20
2019-01-30T20:54:37.820Z,15.10
2019-01-30T20:59:59.268Z,11.87
2019-01-30T21:05:20.787Z,14.20
2019-01-30T21:10:41.795Z,11.90
2019-01-30T21:16:03.332Z,12.27
2019-01-30T21:21:24.479Z,10.10
2019-01-30T21:26:45.507Z,13.37
2019-01-30T21:32:06.563Z,11.13
2019-01-30T21:37:27.446Z,11.60
2019-01-30T21:42:48.189Z,12.23
2019-01-30T21:48:09.911Z,10.90
2019-01-30T21:53:30.630Z,11.83
2019-01-30T21:58:51.678Z,10.13
2019-01-30T22:04:12.451Z,10.70
2019-01-30T22:09:32.878Z,11.83
2019-01-30T22:14:53.780Z,11.93
2019-01-30T22:20:19.614Z,9.87
2019-01-30T22:25:40.276Z,9.40
2019-01-30T22:31:01.173Z,10.03
2019-01-30T22:36:21.754Z,9.80
2019-01-30T22:41:43.552Z,11.13
2019-01-30T22:47:04.240Z,11.00
2019-01-30T22:52:25.208Z,10.17
2019-01-30T22:57:45.797Z,9.87
2019-01-30T23:03:07.123Z,12.73
2019-01-30T23:08:37.705Z,9.43
2019-01-30T23:14:08.324Z,10.80
2019-01-30T23:19:34.174Z,10.37
2019-01-30T23:25:34.576Z,9.17
2019-01-30T23:31:17.614Z,9.17
2019-01-30T23:36:48.191Z,8.47
2019-01-30T23:43:05.296Z,8.57
2019-01-30T23:48:39.519Z,7.93
2019-01-30T23:54:25.855Z,7.07
